RELACIONES PÚBLICAS

27/12/2017PERSPECTIVAS CLIMÁTICAS PARA ENERO – FEBRERO - MARZO 2017  Se adjunta el Informe de Perspectivas Climáticas para el trimestre Enero, Febrero y Marzo del 2017.http://meteorologia.gub.uy/ServCli/tendenciasClimaticas

Productos aeronáuticos

  • SIGMET
  • METAR / SPECI
  • TAF
  • AIREP
  • Aviso de aeródromo
  • Pronárea
  • Carta superficie

Mensajes METAR de la última hora

SUAA 011700Z VRB02G 9999 FEW033TCU SCT200 30/20 Q1003
SUCA 011700Z 28010KT 9999 FEW013 30/23 Q1002
SUDU 011700Z 30007KT 9999 FEW030 FEW040TCU 32/20 Q1003
SULS 011700Z 24015G27KT 210V270 9999 SCT023 FEW030TCU SCT200 29/22 Q1003
SUMU 011700Z 20008KT CAVOK 31/17 Q1003 NOSIG
SUSO 011700Z 00000KT 9999 BKN023 32/22 Q1005

Mensajes METAR de la última hora - Internacionales


Argentina
SAAR 011700Z 09005KT CAVOK 30/20 Q1004
SABE 011700Z 25003KT 9999 FEW045 32/20 Q1003
SACO 011700Z 11008KT 9999 SCT025 30/21 Q1007
SAEZ 011700Z 26005KT CAVOK 30/17 Q1003
SAME 011700Z 11010KT CAVOK 29/12 Q1006
Bolivia
SLCP 011700Z 36010KT 9999 BKN015 28/23 Q1012
SLLP 011700Z 12006KT 9999 SCT015 FEW017CB SCT070 BKN200 13/05 Q1033
Brasil
SBBR 011700Z 33005KT 9999 BKN035 SCT100 25/16 Q1017
SBFI 011700Z 26011KT 4000 RA FEW030TCU BKN070 22/22 Q1006
SBFL 011700Z 33005KT 9999 FEW030 29/21 Q1004
SBGR 011700Z 32012KT 9999 SCT043 31/20 Q1012
SBPA 011700Z 27009KT 9999 SCT020 SCT100 30/21 Q1005
SBRJ 011700Z 34010KT 9999 FEW025 39/21 Q1006
SBSP 011700Z 33011KT 280V360 9999 SCT040 30/18 Q1013
Colombia
SKBO 011700Z 09006KT 9999 FEW017 BKN023 19/07 A3029
Chile
SCCI 011700Z 26031KT 9999 SCT028 11/02 Q0985 NOSIG
SCEL 011700Z 16012KT 9999 SCT130 28/15 Q1011 NOSIG
Ecuador
SEQM 011700Z 35009KT 9999 SCT030 SCT100 20/11 Q1025 NOSIG RMK A3026
EEUU
KLGA 011713Z 15007KT 7SM SCT017 BKN023 OVC033 15/13 A2961 RMK AO2 RAE11 P0001 T01500128 $
KLGA 011706Z 16007KT 6SM -RA BR SCT017 SCT023 OVC033 15/13 A2963 RMK AO2 PRESFR P0001 T01500128 $
KMIA 011705Z 13009KT 10SM BKN024 BKN034 27/21 A3014 RMK AO2 T02720206
KMIA 011653Z 13009KT 10SM SCT024 BKN033 27/21 A3014 RMK AO2 SLP207 T02720206
KDCA 011652Z 21018G24KT 10SM FEW045 SCT160 BKN250 23/17 A2967 RMK AO2 PK WND 23026/1642 SLP046 T02330167
KIAD 011652Z 20024G32KT 10SM FEW030 BKN160 BKN250 23/14 A2965 RMK AO2 PK WND 20032/1650 SLP038 T02280144
KJFK 011651Z 16003KT 2 1/2SM -RA BR FEW004 OVC019 11/11 A2968 RMK AO2 SFC VIS 3 LTG DSNT NE AND NW RAB12 SLP051 P0001 T01060106
KLGA 011651Z 17005KT 5SM VCTS -RA BR FEW012 BKN017 OVC025 15/13 A2966 RMK AO2 LTG DSNT E TSB05E41E51 SLP045 P0011 T01500128 $
España
LEBL 011730Z 24017KT CAVOK 13/08 Q1018 NOSIG
LEMD 011730Z 21008KT 170V240 CAVOK 16/05 Q1018 NOSIG
LEBL 011700Z 23014KT CAVOK 14/08 Q1018 NOSIG
LEMD 011700Z 21007KT 160V250 CAVOK 16/05 Q1018 NOSIG
Francia
LFPO 011730Z 23017KT 9999 -RA OVC010 11/10 Q1002 NOSIG
LFPO 011700Z 23015KT 190V250 9999 -RA BKN008 11/10 Q1001 NOSIG
Inglaterra
EGLL 011720Z AUTO 23007KT 9999 -RA OVC029 08/05 Q0997 TEMPO BKN014
EGLL 011650Z AUTO 23008KT 9999 FEW012 BKN032 08/05 Q0997 TEMPO BKN014
Panamá
MPTO 011700Z 01009KT 9999 SCT020 32/22 Q1013 NOSIG
Paraguay
SGAS 011700Z 29007KT 240V330 9999 BKN033 FEW040TCU 34/23 Q1004
Venezuela
SVMI 011700Z 05006KT 9999 SCT016 SCT070 29/19 Q1014

* Datos extraidos del Text DataServer de la NOAA (NOAA TEXT DATA SERVER)

Instituto Uruguayo de Meteorología

Dr. Javier Barrios Amorín 1488 - CP 11200
1895 int 108

Montevideo - Uruguay